Time;durP1;ratioP1;P1;durP2;ratioP2;P2;SDS_P1;SDS_P2;PMS_P1;PMS_P2;Temp;Humidity;BMP_temperature;BMP_pressure;BME280_temperature;BME280_humidity;BME280_pressure;Samples;Min_cycle;Max_cycle;Signal;HPM_P1;HPM_P2
2023/05/14 00:01:37;;;;;;;;;;;;;;;-140.72;100.00;52660.75;5096296;28;19916;-73
2023/05/14 00:04:03;;;;;;;;;;;;;;;-140.72;100.00;52642.47;5101211;28;19931;-73
2023/05/14 00:06:28;;;;;;;;;;;;;;;-140.72;100.00;52603.94;5098013;28;20300;-73
2023/05/14 00:08:53;;;;;;;;;;;;;;;-140.72;100.00;52632.34;5105074;28;19916;-73
2023/05/14 00:11:34;;;;;;;;;;;;;;;-140.72;100.00;52624.22;5089166;28;19916;-73
2023/05/14 00:14:00;;;;;;;;;;;;;;;-140.72;100.00;52656.69;5091520;28;19920;-72
2023/05/14 00:16:26;;;;;;;;;;;;;;;-140.72;100.00;52650.59;5098207;28;19923;-73
2023/05/14 00:18:52;;;;;;;;;;;;;;;-140.72;100.00;52626.25;5094353;28;19927;-73
2023/05/14 00:21:17;;;;;;;;;;;;;;;-140.72;100.00;52642.47;5090556;28;20382;-73
2023/05/14 00:23:42;;;;;;;;;;;;;;;-140.72;100.00;52679.00;5091086;28;19917;-73
2023/05/14 00:26:07;;;;;;;;;;;;;;;-140.72;100.00;52664.81;5082583;28;19916;-73
2023/05/14 00:28:33;;;;;;;;;;;;;;;-140.72;100.00;52658.72;5087477;28;19923;-73
2023/05/14 00:30:58;;;;;;;;;;;;;;;-140.72;100.00;52666.84;5084206;28;19952;-72
2023/05/14 00:33:23;;;;;;;;;;;;;;;-140.72;100.00;52624.22;5086791;28;19971;-72
2023/05/14 00:35:48;;;;;;;;;;;;;;;-140.72;100.00;52656.69;5086835;28;19954;-74
2023/05/14 00:38:18;;;;;;;;;;;;;;;-140.72;100.00;52654.66;5092831;28;19920;-72
2023/05/14 00:40:44;;;;;;;;;;;;;;;-140.72;100.00;52626.25;5085079;28;20371;-72
2023/05/14 00:43:10;;;;;;;;;;;;;;;-140.72;100.00;52648.56;5086855;28;20271;-72
2023/05/14 00:45:35;;;;;;;;;;;;;;;-140.72;100.00;52654.66;5090494;28;19924;-72
2023/05/14 00:48:00;;;;;;;;;;;;;;;-140.72;100.00;52679.00;5084616;28;19927;-72
2023/05/14 00:50:26;;;;;;;;;;;;;;;-140.72;100.00;52658.72;5088648;28;19920;-72
2023/05/14 00:52:52;;;;;;;;;;;;;;;-140.72;100.00;52654.66;5084682;28;20015;-72
2023/05/14 00:55:17;;;;;;;;;;;;;;;-140.72;100.00;52632.34;5093511;28;19920;-72
2023/05/14 00:57:43;;;;;;;;;;;;;;;-140.72;100.00;52652.63;5086216;28;20019;-72
2023/05/14 01:00:08;;;;;;;;;;;;;;;-140.72;100.00;52632.34;5095427;28;19921;-72
2023/05/14 01:02:34;;;;;;;;;;;;;;;-140.72;100.00;52644.50;5092106;28;19960;-72
2023/05/14 01:04:59;;;;;;;;;;;;;;;-140.72;100.00;52664.81;5082262;28;19944;-72
2023/05/14 01:07:32;;;;;;;;;;;;;;;-140.72;100.00;52652.63;5091399;28;20006;-72
2023/05/14 01:10:15;;;;;;;;;;;;;;;-140.72;100.00;52689.16;5091883;28;20368;-73
2023/05/14 01:12:53;;;;;;;;;;;;;;;-140.72;100.00;52654.66;5085601;28;20015;-73
2023/05/14 01:15:20;;;;;;;;;;;;;;;-140.72;100.00;52638.41;5091006;28;19920;-73
2023/05/14 01:17:49;;;;;;;;;;;;;;;-140.72;100.00;52674.94;5086032;28;19916;-73
2023/05/14 01:20:15;;;;;;;;;;;;;;;-140.72;100.00;52691.19;5086325;28;19927;-72
2023/05/14 01:22:40;;;;;;;;;;;;;;;-140.72;100.00;52679.00;5082385;28;19917;-73
2023/05/14 01:25:05;;;;;;;;;;;;;;;-140.72;100.00;52646.53;5089848;28;19940;-72
2023/05/14 01:27:46;;;;;;;;;;;;;;;-140.72;100.00;52662.78;5083378;28;19927;-72
2023/05/14 01:30:17;;;;;;;;;;;;;;;-140.72;100.00;52610.00;5087943;28;19928;-72
2023/05/14 01:32:43;;;;;;;;;;;;;;;-140.72;100.00;52691.19;5091046;28;19969;-72
2023/05/14 01:35:09;;;;;;;;;;;;;;;-140.72;100.00;52636.38;5081172;28;19927;-72
2023/05/14 01:37:35;;;;;;;;;;;;;;;-140.72;100.00;52670.88;5089581;28;19916;-72
2023/05/14 01:40:01;;;;;;;;;;;;;;;-140.72;100.00;52648.56;5111388;27;19935;-72
2023/05/14 01:42:27;;;;;;;;;;;;;;;-140.72;100.00;52687.13;5078484;28;19916;-72
2023/05/14 01:44:53;;;;;;;;;;;;;;;-140.72;100.00;52679.00;5085513;28;20058;-73
2023/05/14 01:47:18;;;;;;;;;;;;;;;-140.72;100.00;52683.06;5083402;28;19921;-73
2023/05/14 01:49:50;;;;;;;;;;;;;;;-140.72;100.00;52703.34;5087293;28;20363;-73
2023/05/14 01:52:19;;;;;;;;;;;;;;;-140.72;100.00;52666.84;5088652;28;19916;-72
2023/05/14 01:54:52;;;;;;;;;;;;;;;-140.72;100.00;52634.38;5084716;28;19963;-72
2023/05/14 01:57:17;;;;;;;;;;;;;;;-140.72;100.00;52683.06;5098070;28;19935;-73
2023/05/14 01:59:42;;;;;;;;;;;;;;;-140.72;100.00;52640.44;5086047;28;19932;-73
2023/05/14 02:02:21;;;;;;;;;;;;;;;-140.72;100.00;52658.72;5084362;28;19926;-73
2023/05/14 02:04:47;;;;;;;;;;;;;;;-140.72;100.00;52721.63;5082014;28;19928;-72
2023/05/14 02:07:12;;;;;;;;;;;;;;;-140.72;100.00;52681.03;5084588;28;20306;-72
2023/05/14 02:09:38;;;;;;;;;;;;;;;-140.72;100.00;52679.00;5078541;28;19916;-73
2023/05/14 02:12:04;;;;;;;;;;;;;;;-140.72;100.00;52705.38;5088524;28;20302;-73
2023/05/14 02:14:29;;;;;;;;;;;;;;;-140.72;100.00;52721.63;5087017;28;19916;-73
2023/05/14 02:16:55;;;;;;;;;;;;;;;-140.72;100.00;52695.25;5087474;28;19916;-73
2023/05/14 02:19:20;;;;;;;;;;;;;;;-140.72;100.00;52679.00;5091731;28;20438;-72
2023/05/14 02:21:45;;;;;;;;;;;;;;;-140.72;100.00;52681.03;5091431;28;20275;-72
2023/05/14 02:24:11;;;;;;;;;;;;;;;-140.72;100.00;52674.94;5096594;28;20370;-73
2023/05/14 02:26:36;;;;;;;;;;;;;;;-140.72;100.00;52683.06;5095139;28;19951;-73
2023/05/14 02:29:01;;;;;;;;;;;;;;;-140.72;100.00;52668.84;5088849;28;19970;-73
2023/05/14 02:31:26;;;;;;;;;;;;;;;-140.72;100.00;52662.78;5087113;28;19920;-73
2023/05/14 02:33:51;;;;;;;;;;;;;;;-140.72;100.00;52664.81;5089928;28;19916;-72
2023/05/14 02:36:17;;;;;;;;;;;;;;;-140.72;100.00;52668.84;5082878;28;19926;-73
2023/05/14 02:38:42;;;;;;;;;;;;;;;-140.72;100.00;52634.38;5096815;28;19966;-72
2023/05/14 02:41:07;;;;;;;;;;;;;;;-140.72;100.00;52670.88;5100798;28;19916;-72
2023/05/14 02:43:32;;;;;;;;;;;;;;;-140.72;100.00;52693.22;5090645;28;19916;-73
2023/05/14 02:46:16;;;;;;;;;;;;;;;-140.72;100.00;52674.94;5077664;28;19917;-72
2023/05/14 02:48:41;;;;;;;;;;;;;;;-140.72;100.00;52709.44;5078552;28;19916;-73
2023/05/14 02:51:11;;;;;;;;;;;;;;;-140.72;100.00;52679.00;5076987;28;19921;-72
2023/05/14 02:53:36;;;;;;;;;;;;;;;-140.72;100.00;52687.13;5077214;28;19917;-73
2023/05/14 02:56:01;;;;;;;;;;;;;;;-140.72;100.00;52685.09;5100951;28;19978;-73
2023/05/14 02:58:26;;;;;;;;;;;;;;;-140.72;100.00;52654.66;5084874;28;19920;-72
2023/05/14 03:00:52;;;;;;;;;;;;;;;-140.72;100.00;52723.66;5088680;28;19917;-72
2023/05/14 03:03:18;;;;;;;;;;;;;;;-140.72;100.00;52662.78;5079860;28;20339;-72
2023/05/14 03:05:43;;;;;;;;;;;;;;;-140.72;100.00;52705.38;5091792;28;19927;-72
2023/05/14 03:08:08;;;;;;;;;;;;;;;-140.72;100.00;52666.84;5076462;28;19956;-72
2023/05/14 03:10:33;;;;;;;;;;;;;;;-140.72;100.00;52646.53;5092857;28;19916;-72
2023/05/14 03:12:59;;;;;;;;;;;;;;;-140.72;100.00;52687.13;5101533;28;19916;-72
2023/05/14 03:15:24;;;;;;;;;;;;;;;-140.72;100.00;52674.94;5108973;27;20006;-72
2023/05/14 03:17:49;;;;;;;;;;;;;;;-140.72;100.00;52717.56;5081897;28;19927;-72
2023/05/14 03:20:15;;;;;;;;;;;;;;;-140.72;100.00;52717.56;5092395;28;20366;-72
2023/05/14 03:22:40;;;;;;;;;;;;;;;-140.72;100.00;52674.94;5093912;28;19917;-72
2023/05/14 03:25:05;;;;;;;;;;;;;;;-140.72;100.00;52650.59;5086605;28;20008;-72
2023/05/14 03:27:32;;;;;;;;;;;;;;;-140.72;100.00;52687.13;5088203;28;19952;-72
2023/05/14 03:29:57;;;;;;;;;;;;;;;-140.72;100.00;52697.28;5092243;28;20312;-72
2023/05/14 03:32:22;;;;;;;;;;;;;;;-140.72;100.00;52681.03;5090621;28;19916;-72
2023/05/14 03:34:47;;;;;;;;;;;;;;;-140.72;100.00;52713.50;5091758;28;19920;-72
2023/05/14 03:37:12;;;;;;;;;;;;;;;-140.72;100.00;52676.97;5085941;28;19920;-72
2023/05/14 03:39:38;;;;;;;;;;;;;;;-140.72;100.00;52685.09;5089297;28;19924;-72
2023/05/14 03:42:03;;;;;;;;;;;;;;;-140.72;100.00;52695.25;5090158;28;19920;-72
2023/05/14 03:44:28;;;;;;;;;;;;;;;-140.72;100.00;52689.16;5082277;28;19923;-73
2023/05/14 03:46:54;;;;;;;;;;;;;;;-140.72;100.00;52707.41;5094714;28;19995;-72
2023/05/14 03:49:19;;;;;;;;;;;;;;;-140.72;100.00;52695.25;5089120;28;19920;-72
2023/05/14 03:51:45;;;;;;;;;;;;;;;-140.72;100.00;52703.34;5080547;28;19920;-72
2023/05/14 03:54:10;;;;;;;;;;;;;;;-140.72;100.00;52691.19;5092466;28;19931;-73
2023/05/14 03:56:35;;;;;;;;;;;;;;;-140.72;100.00;52699.31;5084937;28;19916;-73
2023/05/14 03:59:00;;;;;;;;;;;;;;;-140.72;100.00;52679.00;5085010;28;20007;-72
2023/05/14 04:01:26;;;;;;;;;;;;;;;-140.72;100.00;52695.25;5091600;28;19956;-72
2023/05/14 04:03:51;;;;;;;;;;;;;;;-140.72;100.00;52727.72;5093433;28;19916;-72
2023/05/14 04:06:16;;;;;;;;;;;;;;;-140.72;100.00;52687.13;5086890;28;19968;-72
2023/05/14 04:08:41;;;;;;;;;;;;;;;-140.72;100.00;52699.31;5084115;28;19916;-72
2023/05/14 04:11:07;;;;;;;;;;;;;;;-140.72;100.00;52693.22;5106539;28;19931;-72
2023/05/14 04:13:32;;;;;;;;;;;;;;;-140.72;100.00;52695.25;5093213;28;19916;-72
2023/05/14 04:15:57;;;;;;;;;;;;;;;-140.72;100.00;52709.44;5093352;28;19916;-72
2023/05/14 04:18:22;;;;;;;;;;;;;;;-140.72;100.00;52691.19;5089014;28;19916;-72
2023/05/14 04:20:48;;;;;;;;;;;;;;;-140.72;100.00;52681.03;5075925;28;20271;-72
2023/05/14 04:23:13;;;;;;;;;;;;;;;-140.72;100.00;52691.19;5074019;28;20314;-72
2023/05/14 04:25:38;;;;;;;;;;;;;;;-140.72;100.00;52739.88;5079673;28;19939;-72
2023/05/14 04:28:03;;;;;;;;;;;;;;;-140.72;100.00;52709.44;5083917;28;19920;-72
2023/05/14 04:30:29;;;;;;;;;;;;;;;-140.72;100.00;52662.78;5096186;28;19917;-72
2023/05/14 04:32:54;;;;;;;;;;;;;;;-140.72;100.00;52683.06;5085217;28;19927;-72
2023/05/14 04:35:20;;;;;;;;;;;;;;;-140.72;100.00;52711.47;5084997;28;20014;-72
2023/05/14 04:37:45;;;;;;;;;;;;;;;-140.72;100.00;52691.19;5084534;28;20375;-72
2023/05/14 04:40:11;;;;;;;;;;;;;;;-140.72;100.00;52674.94;5087537;28;19920;-73
2023/05/14 04:42:36;;;;;;;;;;;;;;;-140.72;100.00;52681.03;5093997;28;20020;-73
2023/05/14 04:45:03;;;;;;;;;;;;;;;-140.72;100.00;52727.72;5094061;28;20369;-73
2023/05/14 04:47:29;;;;;;;;;;;;;;;-140.72;100.00;52679.00;5091333;28;19920;-72
2023/05/14 04:49:54;;;;;;;;;;;;;;;-140.72;100.00;52687.13;5093390;28;19923;-72
2023/05/14 04:52:19;;;;;;;;;;;;;;;-140.72;100.00;52683.06;5091879;28;19968;-73
2023/05/14 04:54:44;;;;;;;;;;;;;;;-140.72;100.00;52681.03;5089068;28;19916;-72
2023/05/14 04:57:10;;;;;;;;;;;;;;;-140.72;100.00;52697.28;5095682;28;20279;-72
2023/05/14 04:59:35;;;;;;;;;;;;;;;-140.72;100.00;52707.41;5096571;28;19916;-72
2023/05/14 05:02:00;;;;;;;;;;;;;;;-140.72;100.00;52644.50;5084897;28;20392;-73
2023/05/14 05:04:26;;;;;;;;;;;;;;;-140.72;100.00;52658.72;5089864;28;19920;-72
2023/05/14 05:06:51;;;;;;;;;;;;;;;-140.72;100.00;52662.78;5103126;28;19942;-77
2023/05/14 05:09:25;;;;;;;;;;;;;;;-140.72;100.00;52711.47;5093760;28;19924;-77
2023/05/14 05:11:50;;;;;;;;;;;;;;;-140.72;100.00;52670.88;5089914;28;19926;-77
2023/05/14 05:14:16;;;;;;;;;;;;;;;-140.72;100.00;52670.88;5093971;28;20356;-72
2023/05/14 05:16:41;;;;;;;;;;;;;;;-140.72;100.00;52638.41;5088320;28;20007;-72
2023/05/14 05:19:06;;;;;;;;;;;;;;;-140.72;100.00;52672.91;5092798;28;19924;-72
2023/05/14 05:21:32;;;;;;;;;;;;;;;-140.72;100.00;52683.06;5089161;28;20295;-72
2023/05/14 05:23:58;;;;;;;;;;;;;;;-140.72;100.00;52683.06;5084879;28;19972;-74
2023/05/14 05:26:25;;;;;;;;;;;;;;;-140.72;100.00;52654.66;5092503;28;20400;-73
2023/05/14 05:28:53;;;;;;;;;;;;;;;-140.72;100.00;52699.31;5088800;28;20491;-78
2023/05/14 05:31:19;;;;;;;;;;;;;;;-140.72;100.00;52632.34;5092143;28;19965;-79
2023/05/14 05:33:44;;;;;;;;;;;;;;;-140.72;100.00;52644.50;5093288;28;20003;-78
2023/05/14 05:36:09;;;;;;;;;;;;;;;-140.72;100.00;52699.31;5091602;28;19947;-78
2023/05/14 05:38:35;;;;;;;;;;;;;;;-140.72;100.00;52687.13;5092041;28;19925;-77
2023/05/14 05:41:00;;;;;;;;;;;;;;;-140.72;100.00;52662.78;5091921;28;19962;-78
2023/05/14 05:43:27;;;;;;;;;;;;;;;-140.72;100.00;52656.69;5098148;28;20434;-76
2023/05/14 05:45:52;;;;;;;;;;;;;;;-140.72;100.00;52642.47;5095715;28;19942;-75
2023/05/14 05:48:17;;;;;;;;;;;;;;;-140.72;100.00;52691.19;5093589;28;19921;-76
2023/05/14 05:50:46;;;;;;;;;;;;;;;-140.72;100.00;52658.72;5122820;27;19991;-76
2023/05/14 05:53:11;;;;;;;;;;;;;;;-140.72;100.00;52626.25;5123236;27;19921;-76
2023/05/14 05:55:36;;;;;;;;;;;;;;;-140.72;100.00;52646.53;5088142;28;19931;-75
2023/05/14 05:58:16;;;;;;;;;;;;;;;-140.72;100.00;52630.31;5089611;28;19924;-75
2023/05/14 06:00:41;;;;;;;;;;;;;;;-140.72;100.00;52650.59;5094242;28;19966;-77
2023/05/14 06:03:06;;;;;;;;;;;;;;;-140.72;100.00;52605.94;5084816;28;19931;-76
2023/05/14 06:05:31;;;;;;;;;;;;;;;-140.72;100.00;52612.03;5093734;28;19920;-77
2023/05/14 06:07:57;;;;;;;;;;;;;;;-140.72;100.00;52614.06;5085384;28;20003;-77
2023/05/14 06:10:22;;;;;;;;;;;;;;;-140.72;100.00;52612.03;5087060;28;19920;-73
2023/05/14 06:12:47;;;;;;;;;;;;;;;-140.72;100.00;52654.66;5090322;28;19924;-77
2023/05/14 06:15:13;;;;;;;;;;;;;;;-140.72;100.00;52666.84;5079984;28;19927;-77
2023/05/14 06:17:38;;;;;;;;;;;;;;;-140.72;100.00;52662.78;5094740;28;19927;-75
2023/05/14 06:20:04;;;;;;;;;;;;;;;-140.72;100.00;52662.78;5091904;28;19916;-75
2023/05/14 06:22:29;;;;;;;;;;;;;;;-140.72;100.00;52654.66;5087731;28;19991;-77
2023/05/14 06:24:55;;;;;;;;;;;;;;;-140.72;100.00;52648.56;5091467;28;19950;-76
2023/05/14 06:27:20;;;;;;;;;;;;;;;-140.72;100.00;52650.59;5089957;28;19924;-75
2023/05/14 06:29:45;;;;;;;;;;;;;;;-140.72;100.00;52614.06;5093300;28;19938;-80
2023/05/14 06:32:14;;;;;;;;;;;;;;;-140.72;100.00;52603.94;5091757;28;19924;-78
2023/05/14 06:34:39;;;;;;;;;;;;;;;-140.72;100.00;52612.03;5096300;28;20282;-77
2023/05/14 06:37:05;;;;;;;;;;;;;;;-140.72;100.00;52618.13;5087535;28;19916;-75
2023/05/14 06:39:31;;;;;;;;;;;;;;;-140.72;100.00;52601.91;5097696;28;20362;-76
2023/05/14 06:41:56;;;;;;;;;;;;;;;-140.72;100.00;52593.78;5089588;28;19927;-77
2023/05/14 06:44:21;;;;;;;;;;;;;;;-140.72;100.00;52561.31;5092598;28;19947;-77
2023/05/14 06:46:46;;;;;;;;;;;;;;;-140.72;100.00;52567.41;5097723;28;19959;-77
2023/05/14 06:49:12;;;;;;;;;;;;;;;-140.72;100.00;52607.97;5096825;28;19927;-78
2023/05/14 06:51:37;;;;;;;;;;;;;;;-140.72;100.00;52634.38;5096640;28;20388;-77
2023/05/14 06:54:03;;;;;;;;;;;;;;;-140.72;100.00;52595.81;5096620;28;19934;-77
2023/05/14 06:56:28;;;;;;;;;;;;;;;-140.72;100.00;52587.69;5097376;28;19920;-76
2023/05/14 06:58:53;;;;;;;;;;;;;;;-140.72;100.00;52626.25;5101289;28;19916;-77
2023/05/14 07:01:18;;;;;;;;;;;;;;;-140.72;100.00;52561.31;5104347;28;19926;-73
2023/05/14 07:03:43;;;;;;;;;;;;;;;-140.72;100.00;52656.69;5096861;28;19916;-73
2023/05/14 07:06:09;;;;;;;;;;;;;;;-140.72;100.00;52595.81;5090618;28;19981;-73
2023/05/14 07:08:34;;;;;;;;;;;;;;;-140.72;100.00;52597.84;5086278;28;19924;-73
2023/05/14 07:11:00;;;;;;;;;;;;;;;-140.72;100.00;52601.91;5084012;28;19921;-77
2023/05/14 07:13:26;;;;;;;;;;;;;;;-140.72;100.00;52612.03;5104644;28;19920;-78
2023/05/14 07:15:54;;;;;;;;;;;;;;;-140.72;100.00;52567.41;5100119;28;19920;-77
2023/05/14 07:18:19;;;;;;;;;;;;;;;-140.72;100.00;52597.84;5102541;28;19962;-76
2023/05/14 07:20:45;;;;;;;;;;;;;;;-140.72;100.00;52589.72;5093727;28;19921;-76
2023/05/14 07:23:10;;;;;;;;;;;;;;;-140.72;100.00;52530.88;5094702;28;19928;-78
2023/05/14 07:25:55;;;;;;;;;;;;;;;-140.72;100.00;52547.09;5088758;28;19925;-75
2023/05/14 07:28:21;;;;;;;;;;;;;;;-140.72;100.00;52583.63;5090807;28;19916;-79
2023/05/14 07:30:46;;;;;;;;;;;;;;;-140.72;100.00;52571.47;5089149;28;20017;-81
2023/05/14 07:33:11;;;;;;;;;;;;;;;-140.72;100.00;52543.03;5094307;28;19950;-77
2023/05/14 07:35:37;;;;;;;;;;;;;;;-140.72;100.00;52532.91;5083748;28;20367;-77
2023/05/14 07:38:04;;;;;;;;;;;;;;;-140.72;100.00;52569.44;5082274;28;19925;-77
2023/05/14 07:40:29;;;;;;;;;;;;;;;-140.72;100.00;52593.78;5089178;28;19926;-76
2023/05/14 07:42:54;;;;;;;;;;;;;;;-140.72;100.00;52536.97;5097682;28;20011;-79
2023/05/14 07:45:20;;;;;;;;;;;;;;;-140.72;100.00;52506.53;5092658;28;19927;-70
2023/05/14 07:47:45;;;;;;;;;;;;;;;-140.72;100.00;52518.69;5081343;28;20333;-71
2023/05/14 07:50:10;;;;;;;;;;;;;;;-140.72;100.00;52526.81;5086155;28;19921;-71
2023/05/14 07:52:36;;;;;;;;;;;;;;;-140.72;100.00;52571.47;5085408;28;19986;-71
2023/05/14 07:55:02;;;;;;;;;;;;;;;-140.72;100.00;52516.66;5091466;28;19916;-74
2023/05/14 07:57:27;;;;;;;;;;;;;;;-140.72;100.00;52532.91;5095450;28;20009;-74
2023/05/14 07:59:52;;;;;;;;;;;;;;;-140.72;100.00;52547.09;5083446;28;19924;-70
2023/05/14 08:02:17;;;;;;;;;;;;;;;-140.72;100.00;52534.94;5088139;28;19974;-74
2023/05/14 08:04:43;;;;;;;;;;;;;;;-140.72;100.00;52488.25;5085265;28;19973;-73
2023/05/14 08:07:08;;;;;;;;;;;;;;;-140.72;100.00;52524.78;5086191;28;19978;-74
2023/05/14 08:09:34;;;;;;;;;;;;;;;-140.72;100.00;52502.47;5088123;28;19920;-76
2023/05/14 08:11:59;;;;;;;;;;;;;;;-140.72;100.00;52534.94;5078900;28;20438;-74
2023/05/14 08:14:25;;;;;;;;;;;;;;;-140.72;100.00;52520.72;5084987;28;19920;-74
2023/05/14 08:16:50;;;;;;;;;;;;;;;-140.72;100.00;52514.63;5087174;28;20843;-74
2023/05/14 08:19:15;;;;;;;;;;;;;;;-140.72;100.00;52539.00;5087698;28;19919;-74
2023/05/14 08:21:40;;;;;;;;;;;;;;;-140.72;100.00;52512.59;5096765;28;19998;-73
2023/05/14 08:24:06;;;;;;;;;;;;;;;-140.72;100.00;52536.97;5091929;28;19927;-77
2023/05/14 08:26:31;;;;;;;;;;;;;;;-140.72;100.00;52536.97;5092855;28;19920;-74
2023/05/14 08:29:06;;;;;;;;;;;;;;;-140.72;100.00;52500.44;5092239;28;19927;-74
2023/05/14 08:31:31;;;;;;;;;;;;;;;-140.72;100.00;52488.25;5124026;27;19927;-74
2023/05/14 08:33:56;;;;;;;;;;;;;;;-140.72;100.00;52528.84;5091383;28;20309;-74
2023/05/14 08:36:22;;;;;;;;;;;;;;;-140.72;100.00;52539.00;5087206;28;20290;-74
2023/05/14 08:38:49;;;;;;;;;;;;;;;-140.72;100.00;52514.63;5088724;28;20294;-74
2023/05/14 08:41:15;;;;;;;;;;;;;;;-140.72;100.00;52532.91;5093858;28;19920;-74
2023/05/14 08:44:09;;;;;;;;;;;;;;;-140.72;100.00;52530.88;5082961;28;20344;-74
2023/05/14 08:46:35;;;;;;;;;;;;;;;-140.72;100.00;52506.53;5084738;28;20440;-75
2023/05/14 08:49:21;;;;;;;;;;;;;;;-140.72;100.00;52470.00;5087583;28;19920;-74
2023/05/14 08:51:47;;;;;;;;;;;;;;;-140.72;100.00;52455.78;5088552;28;19924;-76
2023/05/14 08:54:15;;;;;;;;;;;;;;;-140.72;100.00;52413.19;5091486;28;19964;-76
2023/05/14 08:56:42;;;;;;;;;;;;;;;-140.72;100.00;52465.94;5092841;28;19947;-82
2023/05/14 08:59:07;;;;;;;;;;;;;;;-140.72;100.00;52508.56;5093403;28;19939;-77
2023/05/14 09:01:33;;;;;;;;;;;;;;;-140.72;100.00;52465.94;5095013;28;19916;-77
2023/05/14 09:04:00;;;;;;;;;;;;;;;-140.72;100.00;52512.59;5086247;28;19924;-76
2023/05/14 09:06:26;;;;;;;;;;;;;;;-140.72;100.00;52431.44;5085789;28;19927;-76
2023/05/14 09:08:51;;;;;;;;;;;;;;;-140.72;100.00;52496.38;5087299;28;19920;-74
2023/05/14 09:11:17;;;;;;;;;;;;;;;-140.72;100.00;52394.91;5094200;28;19931;-73
2023/05/14 09:13:42;;;;;;;;;;;;;;;-140.72;100.00;52354.34;5087067;28;20294;-74
2023/05/14 09:16:07;;;;;;;;;;;;;;;-140.72;78.24;52380.72;5083413;28;19944;-74
2023/05/14 09:18:34;;;;;;;;;;;;;;;-140.72;45.78;52423.31;5082805;28;20000;-74
2023/05/14 09:21:00;;;;;;;;;;;;;;;-140.72;38.19;52431.44;5095048;28;19959;-74
2023/05/14 09:23:25;;;;;;;;;;;;;;;-140.72;48.54;52350.28;5097880;28;19920;-76
2023/05/14 09:25:51;;;;;;;;;;;;;;;-140.72;31.75;52364.47;5088236;28;20003;-76
2023/05/14 09:28:17;;;;;;;;;;;;;;;-140.72;18.28;52368.53;5085318;28;19928;-77
2023/05/14 09:30:46;;;;;;;;;;;;;;;-140.72;0.00;52338.09;5087092;28;19926;-76
2023/05/14 09:33:11;;;;;;;;;;;;;;;-140.72;0.00;52321.88;5088212;28;20050;-77
2023/05/14 09:35:39;;;;;;;;;;;;;;;-140.72;0.00;52291.44;5085820;28;20386;-77
2023/05/14 09:38:04;;;;;;;;;;;;;;;-140.72;0.00;52293.47;5089133;28;19926;-76
2023/05/14 09:40:29;;;;;;;;;;;;;;;-140.72;0.00;52265.06;5090004;28;20441;-76
2023/05/14 09:42:55;;;;;;;;;;;;;;;-140.72;0.00;52275.19;5095992;28;19916;-76
2023/05/14 09:45:20;;;;;;;;;;;;;;;-140.72;0.00;52256.94;5089011;28;19955;-77
2023/05/14 09:47:45;;;;;;;;;;;;;;;-140.72;0.00;52269.13;5093185;28;20389;-77
2023/05/14 09:50:11;;;;;;;;;;;;;;;-140.72;0.00;52311.72;5088214;28;19945;-77
2023/05/14 09:52:37;;;;;;;;;;;;;;;-140.72;0.00;52252.88;5086612;28;20276;-77
2023/05/14 09:55:02;;;;;;;;;;;;;;;-140.72;0.00;52226.50;5093689;28;19920;-77
2023/05/14 09:57:28;;;;;;;;;;;;;;;-140.72;0.00;52212.31;5084788;28;19920;-76
2023/05/14 09:59:53;;;;;;;;;;;;;;;-140.72;0.00;52206.22;5094568;28;20302;-76
2023/05/14 10:02:23;;;;;;;;;;;;;;;-140.72;0.00;52242.75;5093015;28;19927;-77
2023/05/14 10:04:50;;;;;;;;;;;;;;;-140.72;0.00;52226.50;5087774;28;19920;-76
2023/05/14 10:07:17;;;;;;;;;;;;;;;-140.72;0.00;52187.97;5085773;28;19920;-76
2023/05/14 10:09:45;;;;;;;;;;;;;;;-140.72;0.00;52183.91;5089841;28;20002;-75
2023/05/14 10:12:10;;;;;;;;;;;;;;;-140.72;0.00;52143.31;5089592;28;19921;-77
2023/05/14 10:14:39;;;;;;;;;;;;;;;-140.72;0.00;52139.25;5086396;28;20015;-76
2023/05/14 10:17:05;;;;;;;;;;;;;;;-140.72;0.00;52100.72;5088787;28;19920;-77
2023/05/14 10:19:32;;;;;;;;;;;;;;;-140.72;0.00;52088.53;5084432;28;19961;-76
2023/05/14 10:22:02;;;;;;;;;;;;;;;-140.72;0.00;52082.44;5091740;28;19930;-74
2023/05/14 10:24:28;;;;;;;;;;;;;;;-140.72;0.00;52139.25;5093473;28;19916;-78
2023/05/14 10:26:53;;;;;;;;;;;;;;;-140.72;0.00;52145.34;5090242;28;19969;-76
2023/05/14 10:29:22;;;;;;;;;;;;;;;-140.72;0.00;52123.03;5090666;28;20044;-76
2023/05/14 10:31:48;;;;;;;;;;;;;;;-140.72;0.00;52108.81;5089142;28;19924;-76
2023/05/14 10:34:32;;;;;;;;;;;;;;;-140.72;0.00;52106.78;5091028;28;19925;-77
2023/05/14 10:37:01;;;;;;;;;;;;;;;-140.72;0.00;52084.47;5089667;28;20021;-78
2023/05/14 10:39:46;;;;;;;;;;;;;;;-140.72;0.00;52001.28;5097553;28;19966;-77
2023/05/14 10:42:18;;;;;;;;;;;;;;;-140.72;0.00;52033.75;5086501;28;19948;-77
2023/05/14 10:44:54;;;;;;;;;;;;;;;-140.72;0.00;51962.75;5080950;28;19962;-76
2023/05/14 10:47:19;;;;;;;;;;;;;;;-140.72;0.00;52001.28;5080402;28;19920;-77
2023/05/14 10:49:47;;;;;;;;;;;;;;;-140.72;0.00;52052.00;5089895;28;19927;-77
2023/05/14 10:52:14;;;;;;;;;;;;;;;-140.72;0.00;52017.53;5092351;28;19920;-77
2023/05/14 10:54:44;;;;;;;;;;;;;;;-140.72;0.00;51995.19;5096067;28;19917;-76
2023/05/14 10:57:10;;;;;;;;;;;;;;;-140.72;0.00;52015.50;5091774;28;20397;-77
2023/05/14 10:59:36;;;;;;;;;;;;;;;-140.72;0.00;51948.53;5092689;28;19943;-77
2023/05/14 11:02:03;;;;;;;;;;;;;;;-140.72;0.00;51976.94;5090316;28;19920;-77
2023/05/14 11:04:30;;;;;;;;;;;;;;;-140.72;0.00;51948.53;5089875;28;20401;-77
2023/05/14 11:06:56;;;;;;;;;;;;;;;-140.72;0.00;51910.00;5087546;28;19964;-77
2023/05/14 11:09:22;;;;;;;;;;;;;;;-140.72;0.00;51930.28;5088136;28;20493;-79
2023/05/14 11:11:48;;;;;;;;;;;;;;;-140.72;0.00;51910.00;5087286;28;20944;-77
2023/05/14 11:14:13;;;;;;;;;;;;;;;-140.72;0.00;52005.34;5098717;28;19920;-77
2023/05/14 11:16:40;;;;;;;;;;;;;;;-140.72;0.00;51972.88;5079903;28;19931;-80
2023/05/14 11:19:05;;;;;;;;;;;;;;;-140.72;0.00;51956.66;5098690;28;19992;-80
2023/05/14 11:21:33;;;;;;;;;;;;;;;-140.72;0.00;51912.03;5100780;28;20359;-78
2023/05/14 11:24:11;;;;;;;;;;;;;;;-140.72;0.00;51968.81;5093028;28;19908;-82
2023/05/14 11:26:37;;;;;;;;;;;;;;;-140.72;0.00;51950.56;5093756;28;19915;-81
2023/05/14 11:29:03;;;;;;;;;;;;;;;-140.72;0.00;52001.28;5086496;28;19966;-79
2023/05/14 11:31:29;;;;;;;;;;;;;;;-140.72;0.00;51976.94;5092654;28;20011;-79
2023/05/14 11:33:54;;;;;;;;;;;;;;;-140.72;0.00;51997.22;5114508;27;20390;-79
2023/05/14 11:36:19;;;;;;;;;;;;;;;-140.72;0.00;52001.28;5093745;28;19954;-79
2023/05/14 11:38:47;;;;;;;;;;;;;;;-140.72;0.00;51987.09;5099950;28;19920;-80
2023/05/14 11:41:13;;;;;;;;;;;;;;;-140.72;0.00;51997.22;5092796;28;19923;-80
2023/05/14 11:43:38;;;;;;;;;;;;;;;-140.72;0.00;51928.25;5097908;28;19920;-79
2023/05/14 11:46:04;;;;;;;;;;;;;;;-140.72;0.00;51881.59;5093240;28;20020;-82
2023/05/14 11:48:30;;;;;;;;;;;;;;;-140.72;0.00;51916.06;5116144;27;19966;-76
2023/05/14 11:50:56;;;;;;;;;;;;;;;-140.72;0.00;51920.13;5084516;28;20417;-77
2023/05/14 11:53:25;;;;;;;;;;;;;;;-140.72;0.00;51855.22;5089119;28;19924;-77
2023/05/14 11:55:51;;;;;;;;;;;;;;;-140.72;0.00;51867.38;5093054;28;19926;-75
2023/05/14 11:58:17;;;;;;;;;;;;;;;-140.72;0.00;51841.00;5083189;28;20320;-75
2023/05/14 12:00:54;;;;;;;;;;;;;;;-140.72;0.00;51887.66;5084685;28;19920;-75
2023/05/14 12:03:24;;;;;;;;;;;;;;;-140.72;0.00;51875.50;5091347;28;20030;-75
2023/05/14 12:05:59;;;;;;;;;;;;;;;-140.72;0.00;51885.66;5088138;28;19964;-74
2023/05/14 12:08:30;;;;;;;;;;;;;;;-140.72;0.00;51912.03;5087170;28;19920;-75
2023/05/14 12:10:57;;;;;;;;;;;;;;;-140.72;0.00;51956.66;5086756;28;20330;-75
2023/05/14 12:13:25;;;;;;;;;;;;;;;-140.72;0.00;51932.31;5090456;28;19920;-75
2023/05/14 12:15:55;;;;;;;;;;;;;;;-140.72;0.00;52019.56;5094001;28;19924;-75
2023/05/14 12:18:20;;;;;;;;;;;;;;;-140.72;0.00;51999.25;5090628;28;19916;-75